^^
Meteo Knjazevac Station Historical Data
Daily Summary for February 4, 2021 Units:  Both    English   Metric
Daily Weekly Monthly Yearly Custom
  High: Low: Average:
Temperature: 84.9 °F /  29.4 °C 58.3 °F /  14.6 °C 71.7 °F /  22.1 °C
Dew Point: 65.6 °F /  18.7 °C 57.1 °F /  13.9 °C 60.7 °F /  15.9 °C
Humidity: 98% 44% 72%
Wind Speed: 10mph /  16.1km/h - 3.1mph /  5km/h
Wind Gust: 20mph /  32.2km/h - -
Wind- - SW
Pressure: 30.05 in /  1017.5 hPa 29.93 in /  1013.4 hPa -
Precipitation: 0.01 in /  0.25 mm    
Historical Graphs
 
 
Tabular Data for February 4, 2021
Time Temperature Dew Point Pressure Wind Wind Speed Wind Gust Humidity Rainfall Rate (Hourly) solar Conditions
00:00 64.8 °F /  18.2 °C 61.1 °F /  16.2 °C 30.05in /  1017.5hPa NNE 1mph /  1.6km/h 7mph /  11.3km/h 88% 0.02in /  0.51mm 0 W/m2
00:10 64.6 °F /  18.1 °C 61.6 °F /  16.4 °C 30.04in /  1017.2hPa NNE 1mph /  1.6km/h 3mph /  4.8km/h 90% 0.00in /  0mm 0 W/m2
00:20 64.4 °F /  18 °C 61.7 °F /  16.5 °C 30.04in /  1017.2hPa SSW 2mph /  3.2km/h 4mph /  6.4km/h 91% 0.00in /  0mm 0 W/m2
00:30 64 °F /  17.8 °C 61.4 °F /  16.3 °C 30.04in /  1017.2hPa SSW 3mph /  4.8km/h 6mph /  9.7km/h 91% 0.00in /  0mm 0 W/m2
00:40 63.5 °F /  17.5 °C 61.4 °F /  16.3 °C 30.03in /  1016.8hPa SW 2mph /  3.2km/h 7mph /  11.3km/h 93% 0.00in /  0mm 0 W/m2
00:50 63.3 °F /  17.4 °C 61.3 °F /  16.3 °C 30.03in /  1016.8hPa SW 2mph /  3.2km/h 5mph /  8km/h 93% 0.00in /  0mm 0 W/m2
01:00 63.1 °F /  17.3 °C 61.4 °F /  16.3 °C 30.03in /  1016.8hPa SW 1mph /  1.6km/h 4mph /  6.4km/h 94% 0.00in /  0mm 0 W/m2
01:10 63 °F /  17.2 °C 60.9 °F /  16.1 °C 30.03in /  1016.8hPa Calm   5mph /  8km/h 93% 0.00in /  0mm 0 W/m2
01:20 62.8 °F /  17.1 °C 60.7 °F /  15.9 °C 30.03in /  1016.8hPa North 1mph /  1.6km/h 2mph /  3.2km/h 93% 0.00in /  0mm 0 W/m2
01:30 62.5 °F /  16.9 °C 60.5 °F /  15.8 °C 30.02in /  1016.5hPa Calm   2mph /  3.2km/h 93% 0.00in /  0mm 0 W/m2
01:40 62.4 °F /  16.9 °C 60.7 °F /  15.9 °C 30.03in /  1016.8hPa Calm   2mph /  3.2km/h 94% 0.00in /  0mm 0 W/m2
01:50 62.2 °F /  16.8 °C 60.5 °F /  15.8 °C 30.02in /  1016.5hPa ESE 2mph /  3.2km/h 5mph /  8km/h 94% 0.00in /  0mm 0 W/m2
02:00 61.9 °F /  16.6 °C 60.1 °F /  15.6 °C 30.02in /  1016.5hPa ESE 2mph /  3.2km/h 6mph /  9.7km/h 94% 0.00in /  0mm 0 W/m2
02:10 61.8 °F /  16.6 °C 60.4 °F /  15.8 °C 30.02in /  1016.5hPa Calm   2mph /  3.2km/h 95% 0.00in /  0mm 0 W/m2
02:20 61.5 °F /  16.4 °C 60.1 °F /  15.6 °C 30.02in /  1016.5hPa Calm   2mph /  3.2km/h 95% 0.00in /  0mm 0 W/m2
02:30 61.5 °F /  16.4 °C 60.1 °F /  15.6 °C 30.02in /  1016.5hPa Calm   2mph /  3.2km/h 95% 0.00in /  0mm 0 W/m2
02:40 61.5 °F /  16.4 °C 60.1 °F /  15.6 °C 30.02in /  1016.5hPa WSW 1mph /  1.6km/h 2mph /  3.2km/h 95% 0.00in /  0mm 0 W/m2
02:50 61.3 °F /  16.3 °C 59.9 °F /  15.5 °C 30.02in /  1016.5hPa SE 3mph /  4.8km/h 9mph /  14.5km/h 95% 0.00in /  0mm 0 W/m2
03:00 61.5 °F /  16.4 °C 60.1 °F /  15.6 °C 30.02in /  1016.5hPa SE 3mph /  4.8km/h 8mph /  12.9km/h 95% 0.00in /  0mm 0 W/m2
03:10 61.3 °F /  16.3 °C 59.9 °F /  15.5 °C 30.01in /  1016.1hPa SE 3mph /  4.8km/h 8mph /  12.9km/h 95% 0.00in /  0mm 0 W/m2
03:20 61.3 °F /  16.3 °C 59.9 °F /  15.5 °C 30.01in /  1016.1hPa SSE 2mph /  3.2km/h 5mph /  8km/h 95% 0.00in /  0mm 0 W/m2
03:30 61.1 °F /  16.2 °C 59.6 °F /  15.3 °C 30.02in /  1016.5hPa Calm   5mph /  8km/h 95% 0.00in /  0mm 0 W/m2
03:40 60.8 °F /  16 °C 59.4 °F /  15.2 °C 30.01in /  1016.1hPa Calm   5mph /  8km/h 95% 0.00in /  0mm 0 W/m2
03:50 60.6 °F /  15.9 °C 59.2 °F /  15.1 °C 30.01in /  1016.1hPa Calm   5mph /  8km/h 95% 0.00in /  0mm 0 W/m2
04:00 60.4 °F /  15.8 °C 59 °F /  15 °C 30.01in /  1016.1hPa South 1mph /  1.6km/h 5mph /  8km/h 95% 0.00in /  0mm 0 W/m2
04:10 60.1 °F /  15.6 °C 58.6 °F /  14.8 °C 30.01in /  1016.1hPa NW 1mph /  1.6km/h 2mph /  3.2km/h 95% 0.00in /  0mm 0 W/m2
04:20 59.9 °F /  15.5 °C 58.8 °F /  14.9 °C 30.01in /  1016.1hPa Calm   2mph /  3.2km/h 96% 0.00in /  0mm 0 W/m2
04:30 59.7 °F /  15.4 °C 58.6 °F /  14.8 °C 30.01in /  1016.1hPa Calm   2mph /  3.2km/h 96% 0.00in /  0mm 0 W/m2
04:40 59.6 °F /  15.3 °C 58.5 °F /  14.7 °C 30.01in /  1016.1hPa NNE 1mph /  1.6km/h 5mph /  8km/h 96% 0.00in /  0mm 0 W/m2
04:50 59.6 °F /  15.3 °C 58.5 °F /  14.7 °C 30.01in /  1016.1hPa South 2mph /  3.2km/h 5mph /  8km/h 96% 0.00in /  0mm 0 W/m2
05:00 59.2 °F /  15.1 °C 58 °F /  14.4 °C 30.01in /  1016.1hPa Calm   2mph /  3.2km/h 96% 0.00in /  0mm 5 W/m2
05:10 59 °F /  15 °C 57.9 °F /  14.4 °C 30.01in /  1016.1hPa South 1mph /  1.6km/h 4mph /  6.4km/h 96% 0.00in /  0mm 11 W/m2
05:20 58.8 °F /  14.9 °C 57.7 °F /  14.3 °C 30.02in /  1016.5hPa Calm   4mph /  6.4km/h 96% 0.00in /  0mm 19 W/m2
05:30 58.8 °F /  14.9 °C 58 °F /  14.4 °C 30.02in /  1016.5hPa SSE 1mph /  1.6km/h 6mph /  9.7km/h 97% 0.00in /  0mm 28 W/m2
05:40 58.6 °F /  14.8 °C 57.5 °F /  14.2 °C 30.02in /  1016.5hPa WNW 1mph /  1.6km/h 2mph /  3.2km/h 96% 0.00in /  0mm 34 W/m2
05:50 58.3 °F /  14.6 °C 57.1 °F /  13.9 °C 30.02in /  1016.5hPa Calm   6mph /  9.7km/h 96% 0.00in /  0mm 39 W/m2
06:00 58.5 °F /  14.7 °C 57.9 °F /  14.4 °C 30.02in /  1016.5hPa SSE 1mph /  1.6km/h 5mph /  8km/h 98% 0.00in /  0mm 62 W/m2
06:10 58.5 °F /  14.7 °C 57.9 °F /  14.4 °C 30.02in /  1016.5hPa SSW 1mph /  1.6km/h 5mph /  8km/h 98% 0.00in /  0mm 96 W/m2
06:20 58.6 °F /  14.8 °C 58.1 °F /  14.5 °C 30.02in /  1016.5hPa Calm   6mph /  9.7km/h 98% 0.00in /  0mm 125 W/m2
06:30 58.5 °F /  14.7 °C 57.9 °F /  14.4 °C 30.02in /  1016.5hPa Calm   3mph /  4.8km/h 98% 0.00in /  0mm 157 W/m2
06:40 58.6 °F /  14.8 °C 58.1 °F /  14.5 °C 30.03in /  1016.8hPa West 2mph /  3.2km/h 5mph /  8km/h 98% 0.00in /  0mm 185 W/m2
06:50 59.4 °F /  15.2 °C 58.8 °F /  14.9 °C 30.02in /  1016.5hPa Calm   5mph /  8km/h 98% 0.00in /  0mm 217 W/m2
07:00 59.9 °F /  15.5 °C 59.3 °F /  15.2 °C 30.02in /  1016.5hPa SE 2mph /  3.2km/h 6mph /  9.7km/h 98% 0.00in /  0mm 249 W/m2
07:10 60.5 °F /  15.8 °C 60 °F /  15.6 °C 30.03in /  1016.8hPa SE 2mph /  3.2km/h 6mph /  9.7km/h 98% 0.00in /  0mm 280 W/m2
07:20 61.2 °F /  16.2 °C 60.7 °F /  15.9 °C 30.03in /  1016.8hPa SE 5mph /  8km/h 7mph /  11.3km/h 98% 0.00in /  0mm 319 W/m2
07:30 62.1 °F /  16.7 °C 60.6 °F /  15.9 °C 30.03in /  1016.8hPa ESE 2mph /  3.2km/h 7mph /  11.3km/h 95% 0.00in /  0mm 347 W/m2
07:40 62.8 °F /  17.1 °C 61 °F /  16.1 °C 30.03in /  1016.8hPa ESE 2mph /  3.2km/h 7mph /  11.3km/h 94% 0.00in /  0mm 383 W/m2
07:50 63.5 °F /  17.5 °C 61.4 °F /  16.3 °C 30.03in /  1016.8hPa SE 2mph /  3.2km/h 8mph /  12.9km/h 93% 0.00in /  0mm 421 W/m2
08:00 64.3 °F /  17.9 °C 61.3 °F /  16.3 °C 30.03in /  1016.8hPa SE 3mph /  4.8km/h 7mph /  11.3km/h 90% 0.00in /  0mm 458 W/m2
08:10 65.1 °F /  18.4 °C 62.1 °F /  16.7 °C 30.03in /  1016.8hPa SE 3mph /  4.8km/h 7mph /  11.3km/h 90% 0.00in /  0mm 502 W/m2
08:20 65.8 °F /  18.8 °C 62.2 °F /  16.8 °C 30.03in /  1016.8hPa SE 2mph /  3.2km/h 7mph /  11.3km/h 88% 0.00in /  0mm 536 W/m2
08:30 66.7 °F /  19.3 °C 62.1 °F /  16.7 °C 30.02in /  1016.5hPa ESE 3mph /  4.8km/h 7mph /  11.3km/h 85% 0.00in /  0mm 567 W/m2
08:40 67.5 °F /  19.7 °C 62.1 °F /  16.7 °C 30.03in /  1016.8hPa SE 2mph /  3.2km/h 7mph /  11.3km/h 83% 0.00in /  0mm 605 W/m2
08:50 68.2 °F /  20.1 °C 62.8 °F /  17.1 °C 30.02in /  1016.5hPa South 2mph /  3.2km/h 5mph /  8km/h 83% 0.00in /  0mm 633 W/m2
09:00 70.1 °F /  21.2 °C 64.3 °F /  17.9 °C 30.02in /  1016.5hPa SSE 3mph /  4.8km/h 9mph /  14.5km/h 82% 0.01in /  0.25mm 660 W/m2
09:10 72 °F /  22.2 °C 63.3 °F /  17.4 °C 30.02in /  1016.5hPa SE 2mph /  3.2km/h 9mph /  14.5km/h 74% 0.00in /  0mm 687 W/m2
09:20 73.7 °F /  23.2 °C 65.6 °F /  18.7 °C 30.01in /  1016.1hPa South 2mph /  3.2km/h 6mph /  9.7km/h 76% 0.00in /  0mm 636 W/m2
09:30 74.7 °F /  23.7 °C 65 °F /  18.3 °C 30.01in /  1016.1hPa Calm   7mph /  11.3km/h 72% 0.00in /  0mm 692 W/m2
09:40 75.2 °F /  24 °C 64.3 °F /  17.9 °C 30.01in /  1016.1hPa SW 2mph /  3.2km/h 6mph /  9.7km/h 69% 0.00in /  0mm 517 W/m2
09:50 75.4 °F /  24.1 °C 64.5 °F /  18.1 °C 30.01in /  1016.1hPa West 3mph /  4.8km/h 7mph /  11.3km/h 69% 0.00in /  0mm 729 W/m2
10:00 75.9 °F /  24.4 °C 64.6 °F /  18.1 °C 30.01in /  1016.1hPa WNW 2mph /  3.2km/h 6mph /  9.7km/h 68% 0.00in /  0mm 805 W/m2
10:10 77.3 °F /  25.2 °C 65.5 °F /  18.6 °C 30.01in /  1016.1hPa West 5mph /  8km/h 8mph /  12.9km/h 67% 0.00in /  0mm 825 W/m2
10:20 77.4 °F /  25.2 °C 64.2 °F /  17.9 °C 30.00in /  1015.8hPa WNW 5mph /  8km/h 11mph /  17.7km/h 64% 0.00in /  0mm 643 W/m2
10:30 77.7 °F /  25.4 °C 64.1 °F /  17.8 °C 30.00in /  1015.8hPa West 7mph /  11.3km/h 12mph /  19.3km/h 63% 0.00in /  0mm 863 W/m2
10:40 78.3 °F /  25.7 °C 63.2 °F /  17.3 °C 30.00in /  1015.8hPa West 6mph /  9.7km/h 12mph /  19.3km/h 60% 0.00in /  0mm 880 W/m2
10:50 78.6 °F /  25.9 °C 62.6 °F /  17 °C 30.00in /  1015.8hPa West 10mph /  16.1km/h 15mph /  24.1km/h 58% 0.00in /  0mm 695 W/m2
11:00 79.2 °F /  26.2 °C 62.1 °F /  16.7 °C 29.99in /  1015.5hPa West 8mph /  12.9km/h 15mph /  24.1km/h 56% 0.00in /  0mm 910 W/m2
11:10 79.2 °F /  26.2 °C 62.1 °F /  16.7 °C 29.99in /  1015.5hPa West 8mph /  12.9km/h 14mph /  22.5km/h 56% 0.00in /  0mm 923 W/m2
11:20 79.5 °F /  26.4 °C 60.9 °F /  16.1 °C 29.99in /  1015.5hPa West 6mph /  9.7km/h 14mph /  22.5km/h 53% 0.00in /  0mm 171 W/m2
11:30 79.8 °F /  26.6 °C 60.1 °F /  15.6 °C 29.99in /  1015.5hPa West 7mph /  11.3km/h 15mph /  24.1km/h 51% 0.00in /  0mm 944 W/m2
11:40 79.9 °F /  26.6 °C 60.1 °F /  15.6 °C 29.99in /  1015.5hPa West 9mph /  14.5km/h 17mph /  27.4km/h 51% 0.00in /  0mm 953 W/m2
11:50 80.2 °F /  26.8 °C 61.6 °F /  16.4 °C 29.98in /  1015.1hPa WSW 7mph /  11.3km/h 17mph /  27.4km/h 53% 0.00in /  0mm 960 W/m2
12:00 80.2 °F /  26.8 °C 61.6 °F /  16.4 °C 29.98in /  1015.1hPa WSW 7mph /  11.3km/h 20mph /  32.2km/h 53% 0.00in /  0mm 966 W/m2
12:10 80.4 °F /  26.9 °C 61.2 °F /  16.2 °C 29.98in /  1015.1hPa WSW 9mph /  14.5km/h 17mph /  27.4km/h 52% 0.00in /  0mm 413 W/m2
12:20 80.6 °F /  27 °C 61.3 °F /  16.3 °C 29.98in /  1015.1hPa West 9mph /  14.5km/h 18mph /  29km/h 52% 0.00in /  0mm 371 W/m2
12:30 81 °F /  27.2 °C 62.2 °F /  16.8 °C 29.97in /  1014.8hPa WSW 6mph /  9.7km/h 15mph /  24.1km/h 53% 0.00in /  0mm 462 W/m2
12:40 81.5 °F /  27.5 °C 62.2 °F /  16.8 °C 29.97in /  1014.8hPa West 9mph /  14.5km/h 14mph /  22.5km/h 52% 0.00in /  0mm 960 W/m2
12:50 81.7 °F /  27.6 °C 61.8 °F /  16.6 °C 29.97in /  1014.8hPa WSW 9mph /  14.5km/h 15mph /  24.1km/h 51% 0.00in /  0mm 483 W/m2
13:00 81.9 °F /  27.7 °C 61.4 °F /  16.3 °C 29.97in /  1014.8hPa WSW 8mph /  12.9km/h 15mph /  24.1km/h 50% 0.00in /  0mm 784 W/m2
13:10 82 °F /  27.8 °C 61.5 °F /  16.4 °C 29.96in /  1014.4hPa WSW 6mph /  9.7km/h 16mph /  25.7km/h 50% 0.00in /  0mm 462 W/m2
13:20 81.9 °F /  27.7 °C 60.8 °F /  16 °C 29.96in /  1014.4hPa West 7mph /  11.3km/h 17mph /  27.4km/h 49% 0.00in /  0mm 957 W/m2
13:30 82.6 °F /  28.1 °C 60.3 °F /  15.7 °C 29.96in /  1014.4hPa WSW 8mph /  12.9km/h 18mph /  29km/h 47% 0.00in /  0mm 949 W/m2
13:40 82.8 °F /  28.2 °C 60.5 °F /  15.8 °C 29.96in /  1014.4hPa WSW 8mph /  12.9km/h 16mph /  25.7km/h 47% 0.00in /  0mm 940 W/m2
13:50 82.9 °F /  28.3 °C 60.6 °F /  15.9 °C 29.96in /  1014.4hPa WSW 6mph /  9.7km/h 17mph /  27.4km/h 47% 0.00in /  0mm 930 W/m2
14:00 83.1 °F /  28.4 °C 60.8 °F /  16 °C 29.95in /  1014.1hPa West 7mph /  11.3km/h 16mph /  25.7km/h 47% 0.00in /  0mm 918 W/m2
14:10 83.1 °F /  28.4 °C 60.8 °F /  16 °C 29.95in /  1014.1hPa West 9mph /  14.5km/h 15mph /  24.1km/h 47% 0.00in /  0mm 904 W/m2
14:20 83.4 °F /  28.6 °C 60.5 °F /  15.8 °C 29.95in /  1014.1hPa West 8mph /  12.9km/h 17mph /  27.4km/h 46% 0.00in /  0mm 889 W/m2
14:30 83.4 °F /  28.6 °C 59.8 °F /  15.4 °C 29.95in /  1014.1hPa West 9mph /  14.5km/h 17mph /  27.4km/h 45% 0.00in /  0mm 873 W/m2
14:40 83.8 °F /  28.8 °C 61.4 °F /  16.3 °C 29.95in /  1014.1hPa West 7mph /  11.3km/h 15mph /  24.1km/h 47% 0.00in /  0mm 856 W/m2
14:50 84 °F /  28.9 °C 60.4 °F /  15.8 °C 29.95in /  1014.1hPa West 9mph /  14.5km/h 15mph /  24.1km/h 45% 0.00in /  0mm 837 W/m2
15:00 84.2 °F /  29 °C 60.6 °F /  15.9 °C 29.95in /  1014.1hPa West 5mph /  8km/h 15mph /  24.1km/h 45% 0.00in /  0mm 817 W/m2
15:10 84.4 °F /  29.1 °C 61.3 °F /  16.3 °C 29.95in /  1014.1hPa West 6mph /  9.7km/h 13mph /  20.9km/h 46% 0.00in /  0mm 796 W/m2
15:20 84.4 °F /  29.1 °C 60.7 °F /  15.9 °C 29.94in /  1013.8hPa West 7mph /  11.3km/h 13mph /  20.9km/h 45% 0.00in /  0mm 774 W/m2
15:30 84.9 °F /  29.4 °C 61.8 °F /  16.6 °C 29.94in /  1013.8hPa West 6mph /  9.7km/h 12mph /  19.3km/h 46% 0.00in /  0mm 751 W/m2
15:40 84.9 °F /  29.4 °C 60.6 °F /  15.9 °C 29.94in /  1013.8hPa West 8mph /  12.9km/h 13mph /  20.9km/h 44% 0.00in /  0mm 727 W/m2
15:50 84.2 °F /  29 °C 60.6 °F /  15.9 °C 29.94in /  1013.8hPa West 5mph /  8km/h 12mph /  19.3km/h 45% 0.00in /  0mm 151 W/m2
16:00 83.5 °F /  28.6 °C 59.9 °F /  15.5 °C 29.95in /  1014.1hPa WNW 6mph /  9.7km/h 10mph /  16.1km/h 45% 0.00in /  0mm 236 W/m2
16:10 83.7 °F /  28.7 °C 60.1 °F /  15.6 °C 29.94in /  1013.8hPa WNW 6mph /  9.7km/h 12mph /  19.3km/h 45% 0.00in /  0mm 649 W/m2
16:20 83.7 °F /  28.7 °C 60.1 °F /  15.6 °C 29.94in /  1013.8hPa WNW 5mph /  8km/h 13mph /  20.9km/h 45% 0.00in /  0mm 211 W/m2
16:30 83.5 °F /  28.6 °C 59.9 °F /  15.5 °C 29.94in /  1013.8hPa West 7mph /  11.3km/h 12mph /  19.3km/h 45% 0.00in /  0mm 436 W/m2
16:40 83.1 °F /  28.4 °C 60.2 °F /  15.7 °C 29.94in /  1013.8hPa West 2mph /  3.2km/h 12mph /  19.3km/h 46% 0.00in /  0mm 171 W/m2
16:50 82.4 °F /  28 °C 58.9 °F /  14.9 °C 29.94in /  1013.8hPa WNW 5mph /  8km/h 10mph /  16.1km/h 45% 0.00in /  0mm 195 W/m2
17:00 82.2 °F /  27.9 °C 60.5 °F /  15.8 °C 29.94in /  1013.8hPa West 3mph /  4.8km/h 7mph /  11.3km/h 48% 0.00in /  0mm 294 W/m2
17:10 81.9 °F /  27.7 °C 60.9 °F /  16.1 °C 29.94in /  1013.8hPa West 3mph /  4.8km/h 8mph /  12.9km/h 49% 0.00in /  0mm 205 W/m2
17:20 81.5 °F /  27.5 °C 60.5 °F /  15.8 °C 29.94in /  1013.8hPa West 5mph /  8km/h 9mph /  14.5km/h 49% 0.00in /  0mm 269 W/m2
17:30 81.5 °F /  27.5 °C 61.1 °F /  16.2 °C 29.94in /  1013.8hPa WSW 2mph /  3.2km/h 8mph /  12.9km/h 50% 0.00in /  0mm 272 W/m2
17:40 81.7 °F /  27.6 °C 61.2 °F /  16.2 °C 29.94in /  1013.8hPa West 5mph /  8km/h 9mph /  14.5km/h 50% 0.00in /  0mm 385 W/m2
17:50 82.4 °F /  28 °C 61.9 °F /  16.6 °C 29.93in /  1013.4hPa West 5mph /  8km/h 10mph /  16.1km/h 50% 0.00in /  0mm 354 W/m2
18:00 82.8 °F /  28.2 °C 61.6 °F /  16.4 °C 29.93in /  1013.4hPa West 6mph /  9.7km/h 10mph /  16.1km/h 49% 0.00in /  0mm 292 W/m2
18:10 82.4 °F /  28 °C 60.7 °F /  15.9 °C 29.93in /  1013.4hPa West 5mph /  8km/h 10mph /  16.1km/h 48% 0.00in /  0mm 274 W/m2
18:20 82.1 °F /  27.8 °C 60.5 °F /  15.8 °C 29.93in /  1013.4hPa West 3mph /  4.8km/h 9mph /  14.5km/h 48% 0.00in /  0mm 264 W/m2
18:30 82.3 °F /  27.9 °C 61.8 °F /  16.6 °C 29.93in /  1013.4hPa West 3mph /  4.8km/h 7mph /  11.3km/h 50% 0.00in /  0mm 203 W/m2
18:40 82.2 °F /  27.9 °C 61.7 °F /  16.5 °C 29.93in /  1013.4hPa West 2mph /  3.2km/h 6mph /  9.7km/h 50% 0.00in /  0mm 174 W/m2
18:50 82.2 °F /  27.9 °C 62.3 °F /  16.8 °C 29.94in /  1013.8hPa WNW 1mph /  1.6km/h 5mph /  8km/h 51% 0.00in /  0mm 144 W/m2
19:00 82 °F /  27.8 °C 62.7 °F /  17.1 °C 29.94in /  1013.8hPa WNW 1mph /  1.6km/h 3mph /  4.8km/h 52% 0.00in /  0mm 101 W/m2
19:10 81.7 °F /  27.6 °C 61.8 °F /  16.6 °C 29.93in /  1013.4hPa NW 2mph /  3.2km/h 4mph /  6.4km/h 51% 0.00in /  0mm 89 W/m2
19:20 81.3 °F /  27.4 °C 62.6 °F /  17 °C 29.93in /  1013.4hPa West 1mph /  1.6km/h 4mph /  6.4km/h 53% 0.00in /  0mm 74 W/m2
19:30 81 °F /  27.2 °C 64.3 °F /  17.9 °C 29.94in /  1013.8hPa West 1mph /  1.6km/h 3mph /  4.8km/h 57% 0.00in /  0mm 59 W/m2
19:40 80.3 °F /  26.8 °C 64.2 °F /  17.9 °C 29.93in /  1013.4hPa WSW 1mph /  1.6km/h 2mph /  3.2km/h 58% 0.00in /  0mm 38 W/m2
19:50 79.7 °F /  26.5 °C 64.1 °F /  17.8 °C 29.93in /  1013.4hPa SSW 1mph /  1.6km/h 2mph /  3.2km/h 59% 0.00in /  0mm 22 W/m2
20:00 78.6 °F /  25.9 °C 63.6 °F /  17.6 °C 29.93in /  1013.4hPa SSW 1mph /  1.6km/h 2mph /  3.2km/h 60% 0.00in /  0mm 13 W/m2
20:10 77.4 °F /  25.2 °C 63.4 °F /  17.4 °C 29.93in /  1013.4hPa SSW 2mph /  3.2km/h 3mph /  4.8km/h 62% 0.00in /  0mm 6 W/m2
20:20 76.3 °F /  24.6 °C 63.6 °F /  17.6 °C 29.93in /  1013.4hPa SW 2mph /  3.2km/h 4mph /  6.4km/h 65% 0.00in /  0mm 0 W/m2
20:30 75.1 °F /  23.9 °C 62.5 °F /  16.9 °C 29.93in /  1013.4hPa WSW 2mph /  3.2km/h 6mph /  9.7km/h 65% 0.00in /  0mm 0 W/m2
20:40 73.8 °F /  23.2 °C 62.6 °F /  17 °C 29.94in /  1013.8hPa West 2mph /  3.2km/h 5mph /  8km/h 68% 0.00in /  0mm 0 W/m2
20:50 73 °F /  22.8 °C 61.9 °F /  16.6 °C 29.94in /  1013.8hPa WSW 1mph /  1.6km/h 6mph /  9.7km/h 68% 0.00in /  0mm 0 W/m2
21:00 72.3 °F /  22.4 °C 60.7 °F /  15.9 °C 29.94in /  1013.8hPa SSW 2mph /  3.2km/h 4mph /  6.4km/h 67% 0.00in /  0mm 0 W/m2
21:10 71.6 °F /  22 °C 60.5 °F /  15.8 °C 29.94in /  1013.8hPa Calm   2mph /  3.2km/h 68% 0.00in /  0mm 0 W/m2
21:20 70.9 °F /  21.6 °C 59.8 °F /  15.4 °C 29.94in /  1013.8hPa WSW 1mph /  1.6km/h 2mph /  3.2km/h 68% 0.00in /  0mm 0 W/m2
21:30 70.2 °F /  21.2 °C 59.5 °F /  15.3 °C 29.95in /  1014.1hPa West 1mph /  1.6km/h 2mph /  3.2km/h 69% 0.00in /  0mm 0 W/m2
21:40 69.4 °F /  20.8 °C 58.8 °F /  14.9 °C 29.95in /  1014.1hPa South 1mph /  1.6km/h 2mph /  3.2km/h 69% 0.00in /  0mm 0 W/m2
21:50 68.6 °F /  20.3 °C 58.4 °F /  14.7 °C 29.95in /  1014.1hPa SE 1mph /  1.6km/h 4mph /  6.4km/h 70% 0.00in /  0mm 0 W/m2
22:00 67.9 °F /  19.9 °C 58.5 °F /  14.7 °C 29.95in /  1014.1hPa West 1mph /  1.6km/h 3mph /  4.8km/h 72% 0.00in /  0mm 0 W/m2
22:10 67.3 °F /  19.6 °C 58 °F /  14.4 °C 29.94in /  1013.8hPa WSW 2mph /  3.2km/h 5mph /  8km/h 72% 0.00in /  0mm 0 W/m2
22:20 66.6 °F /  19.2 °C 57.6 °F /  14.2 °C 29.94in /  1013.8hPa Calm   5mph /  8km/h 73% 0.00in /  0mm 0 W/m2
22:30 66.2 °F /  19 °C 58 °F /  14.4 °C 29.94in /  1013.8hPa Calm   1mph /  1.6km/h 75% 0.00in /  0mm 0 W/m2
22:40 65.7 °F /  18.7 °C 59 °F /  15 °C 29.94in /  1013.8hPa Calm   2mph /  3.2km/h 79% 0.00in /  0mm 0 W/m2
22:50 65.1 °F /  18.4 °C 58.8 °F /  14.9 °C 29.94in /  1013.8hPa West 1mph /  1.6km/h 2mph /  3.2km/h 80% 0.00in /  0mm 0 W/m2
23:00 64.4 °F /  18 °C 58.1 °F /  14.5 °C 29.94in /  1013.8hPa WSW 1mph /  1.6km/h 2mph /  3.2km/h 80% 0.00in /  0mm 0 W/m2
23:10 64 °F /  17.8 °C 58.1 °F /  14.5 °C 29.94in /  1013.8hPa Calm   2mph /  3.2km/h 81% 0.00in /  0mm 0 W/m2
23:20 63.7 °F /  17.6 °C 57.7 °F /  14.3 °C 29.94in /  1013.8hPa West 1mph /  1.6km/h 3mph /  4.8km/h 81% 0.00in /  0mm 0 W/m2
23:30 63.3 °F /  17.4 °C 58.1 °F /  14.5 °C 29.94in /  1013.8hPa NW 1mph /  1.6km/h 3mph /  4.8km/h 83% 0.00in /  0mm 0 W/m2
23:40 62.8 °F /  17.1 °C 57.9 °F /  14.4 °C 29.94in /  1013.8hPa West 1mph /  1.6km/h 4mph /  6.4km/h 84% 0.00in /  0mm 0 W/m2
23:50 62.2 °F /  16.8 °C 57.3 °F /  14.1 °C 29.94in /  1013.8hPa WNW 1mph /  1.6km/h 2mph /  3.2km/h 84% 0.00in /  0mm 0 W/m2
Knjazevac, Serbia
Compliments of Weather Underground - 2 mb